Time;durP1;ratioP1;P1;durP2;ratioP2;P2;SDS_P1;SDS_P2;PMS_P1;PMS_P2;Temp;Humidity;BMP_temperature;BMP_pressure;BME280_temperature;BME280_humidity;BME280_pressure;Samples;Min_cycle;Max_cycle;Signal;HPM_P1;HPM_P2
2023/02/05 00:01:03;;;;;;;10.80;7.93;;;4.50;99.90;;;;;;5014778;28;20189;-68
2023/02/05 00:03:29;;;;;;;11.20;7.97;;;4.30;99.90;;;;;;5013625;28;20187;-67
2023/02/05 00:05:54;;;;;;;12.10;7.53;;;4.40;99.90;;;;;;5019136;28;20892;-68
2023/02/05 00:08:20;;;;;;;9.80;6.10;;;3.70;99.90;;;;;;5012842;28;20214;-67
2023/02/05 00:10:51;;;;;;;14.30;8.00;;;4.40;99.90;;;;;;5012998;28;20184;-69
2023/02/05 00:13:17;;;;;;;11.70;7.25;;;4.90;99.90;;;;;;4992846;28;20270;-68
2023/02/05 00:15:42;;;;;;;12.53;7.70;;;4.20;99.90;;;;;;5013348;28;20818;-68
2023/02/05 00:18:08;;;;;;;9.63;7.17;;;4.60;99.90;;;;;;5019424;28;20225;-68
2023/02/05 00:20:35;;;;;;;9.77;6.80;;;4.80;99.90;;;;;;5005706;28;20190;-67
2023/02/05 00:23:00;;;;;;;9.63;6.70;;;4.70;99.90;;;;;;5015506;28;20626;-68
2023/02/05 00:25:26;;;;;;;9.97;7.27;;;4.60;99.90;;;;;;5012385;28;20223;-68
2023/02/05 00:27:52;;;;;;;10.90;7.13;;;4.80;99.90;;;;;;5020265;28;20468;-67
2023/02/05 00:30:18;;;;;;;9.93;6.90;;;4.70;99.90;;;;;;5017551;28;20189;-68
2023/02/05 00:32:43;;;;;;;8.77;5.50;;;4.70;99.90;;;;;;4995014;28;20256;-69
2023/02/05 00:35:09;;;;;;;7.53;4.80;;;5.00;99.90;;;;;;5012483;28;20443;-68
2023/02/05 00:37:34;;;;;;;7.30;5.60;;;5.40;99.90;;;;;;5011407;28;20246;-68
2023/02/05 00:40:00;;;;;;;10.37;6.23;;;4.30;99.90;;;;;;5016871;28;20655;-68
2023/02/05 00:42:26;;;;;;;7.47;6.20;;;4.70;99.90;;;;;;5011575;28;20243;-67
2023/02/05 00:44:51;;;;;;;7.80;5.30;;;4.80;99.90;;;;;;5020011;28;20211;-67
2023/02/05 00:47:17;;;;;;;7.87;5.10;;;4.80;99.90;;;;;;5003271;28;20207;-67
2023/02/05 00:49:42;;;;;;;6.67;5.27;;;4.90;99.90;;;;;;5018694;28;20185;-68
2023/02/05 00:52:08;;;;;;;19.23;6.50;;;4.50;99.90;;;;;;5015799;28;20183;-68
2023/02/05 00:54:33;;;;;;;5.40;4.90;;;4.90;99.90;;;;;;5018736;28;20202;-68
2023/02/05 00:56:59;;;;;;;9.90;5.57;;;4.70;99.90;;;;;;5015883;28;20195;-68
2023/02/05 00:59:24;;;;;;;9.63;5.93;;;5.10;99.90;;;;;;5018387;28;20250;-68
2023/02/05 01:01:50;;;;;;;7.50;5.47;;;5.20;99.90;;;;;;5018823;28;20204;-68
2023/02/05 01:04:16;;;;;;;8.50;5.40;;;4.40;99.90;;;;;;5012543;28;20191;-68
2023/02/05 01:06:41;;;;;;;7.00;4.47;;;4.60;99.90;;;;;;5013399;28;20219;-68
2023/02/05 01:09:07;;;;;;;12.40;6.07;;;4.90;99.90;;;;;;5015577;28;20215;-68
2023/02/05 01:11:32;;;;;;;9.80;6.50;;;4.90;99.90;;;;;;5019018;28;20195;-67
2023/02/05 01:13:58;;;;;;;15.80;6.07;;;5.00;99.90;;;;;;5004827;28;20195;-67
2023/02/05 01:16:23;;;;;;;11.77;5.63;;;4.70;99.90;;;;;;5000631;28;20595;-68
2023/02/05 01:18:49;;;;;;;9.57;5.80;;;4.90;99.90;;;;;;5020318;28;20212;-68
2023/02/05 01:21:15;;;;;;;7.80;5.87;;;5.20;99.90;;;;;;5009957;28;20241;-68
2023/02/05 01:23:40;;;;;;;9.50;5.80;;;4.40;99.90;;;;;;5015285;28;20212;-68
2023/02/05 01:26:06;;;;;;;6.60;5.53;;;4.60;99.90;;;;;;5020294;28;20496;-68
2023/02/05 01:28:31;;;;;;;9.03;6.20;;;4.90;99.90;;;;;;5017991;28;20218;-68
2023/02/05 01:30:57;;;;;;;8.23;5.60;;;5.40;99.90;;;;;;5016330;28;20198;-68
2023/02/05 01:33:23;;;;;;;9.40;6.60;;;4.70;99.90;;;;;;5015210;28;20731;-68
2023/02/05 01:35:48;;;;;;;9.17;6.60;;;4.90;99.90;;;;;;5019111;28;20287;-68
2023/02/05 01:38:14;;;;;;;8.47;6.33;;;5.00;99.90;;;;;;5011266;28;20202;-68
2023/02/05 01:40:40;;;;;;;8.37;6.43;;;5.00;99.90;;;;;;5014017;28;20657;-68
2023/02/05 01:43:11;;;;;;;6.85;6.25;;;5.40;99.90;;;;;;4996670;28;20225;-68
2023/02/05 01:46:12;;;;;;;5.88;5.28;;;5.10;99.90;;;;;;5019525;28;20208;-68
2023/02/05 01:48:42;;;;;;;10.65;6.32;;;4.80;99.90;;;;;;5011523;28;20207;-67
2023/02/05 01:51:12;;;;;;;10.73;6.75;;;5.10;99.90;;;;;;5013364;28;20179;-67
2023/02/05 01:53:38;;;;;;;7.18;5.85;;;4.90;99.90;;;;;;5018832;28;20269;-67
2023/02/05 01:56:12;;;;;;;9.98;6.05;;;4.30;99.90;;;;;;5012265;28;20652;-68
2023/02/05 01:59:23;;;;;;;9.77;6.30;;;5.20;99.90;;;;;;5014889;28;20183;-68
2023/02/05 02:01:49;;;;;;;9.45;4.88;;;4.90;99.90;;;;;;4997689;28;20207;-68
2023/02/05 02:04:30;;;;;;;8.77;6.40;;;4.90;99.90;;;;;;5016110;28;20564;-67
2023/02/05 02:06:56;;;;;;;12.90;4.95;;;4.50;99.90;;;;;;5012266;28;20474;-68
2023/02/05 02:09:22;;;;;;;8.00;4.90;;;5.00;99.90;;;;;;5014938;28;20214;-67
2023/02/05 02:11:47;;;;;;;7.30;4.80;;;5.00;99.90;;;;;;5013982;28;20704;-67
2023/02/05 02:14:14;;;;;;;12.20;5.80;;;4.90;99.90;;;;;;5018740;28;20199;-68
2023/02/05 02:16:40;;;;;;;9.00;7.05;;;4.80;99.90;;;;;;5013484;28;20213;-68
2023/02/05 02:19:14;;;;;;;9.25;5.50;;;4.80;99.90;;;;;;5014772;28;20284;-68
2023/02/05 02:22:18;;;;;;;11.30;6.80;;;4.60;99.90;;;;;;5017320;28;20184;-68
2023/02/05 02:25:11;;;;;;;9.85;6.28;;;5.00;99.90;;;;;;4941025;29;20250;-67
2023/02/05 02:27:46;;;;;;;7.80;5.63;;;4.80;99.90;;;;;;5012990;28;20649;-67
2023/02/05 02:30:11;;;;;;;9.95;6.00;;;4.80;99.90;;;;;;5010687;28;20190;-68
2023/02/05 02:32:45;;;;;;;9.83;6.40;;;4.90;99.90;;;;;;4998978;28;20672;-68
2023/02/05 02:35:23;;;;;;;9.43;6.55;;;5.30;99.90;;;;;;5007837;28;20185;-68
2023/02/05 02:37:58;;;;;;;9.32;5.25;;;4.90;99.90;;;;;;5012082;28;20192;-68
2023/02/05 02:40:32;;;;;;;8.23;5.78;;;4.90;99.90;;;;;;5013531;28;20196;-68
2023/02/05 02:43:05;;;;;;;7.57;5.88;;;5.00;99.90;;;;;;5015214;28;20281;-68
2023/02/05 02:45:34;;;;;;;9.68;5.78;;;4.90;99.90;;;;;;5020436;28;20261;-68
2023/02/05 02:48:01;;;;;;;8.98;6.72;;;5.00;99.90;;;;;;5021844;28;20267;-67
2023/02/05 02:50:34;;;;;;;11.20;7.00;;;4.50;99.90;;;;;;5014936;28;20690;-68
2023/02/05 02:53:09;;;;;;;10.18;6.90;;;4.30;99.90;;;;;;5007015;28;20190;-68
2023/02/05 02:55:37;;;;;;;10.60;6.82;;;5.10;99.90;;;;;;5023237;28;20199;-68
2023/02/05 02:58:07;;;;;;;14.02;7.68;;;4.90;99.90;;;;;;5019621;28;20204;-68
2023/02/05 03:00:34;;;;;;;7.78;6.93;;;5.00;99.90;;;;;;5022396;28;20259;-68
2023/02/05 03:03:05;;;;;;;11.93;7.22;;;5.10;99.90;;;;;;5018524;28;20673;-67
2023/02/05 03:05:32;;;;;;;8.27;6.70;;;4.90;99.90;;;;;;5004849;28;20274;-68
2023/02/05 03:08:09;;;;;;;9.35;7.55;;;4.40;99.90;;;;;;5024086;28;20219;-68
2023/02/05 03:10:45;;;;;;;10.35;7.13;;;4.90;99.90;;;;;;5016909;28;20184;-68
2023/02/05 03:13:11;;;;;;;12.23;7.43;;;4.60;99.90;;;;;;4999670;28;21069;-68
2023/02/05 03:15:42;;;;;;;11.52;7.57;;;4.90;99.90;;;;;;5000806;28;20551;-68
2023/02/05 03:18:08;;;;;;;10.10;7.40;;;4.90;99.90;;;;;;5004968;28;20548;-68
2023/02/05 03:20:49;;;;;;;10.60;7.50;;;4.30;99.90;;;;;;4999580;28;20188;-68
2023/02/05 03:23:15;;;;;;;10.23;7.25;;;4.90;99.90;;;;;;5019574;28;20202;-68
2023/02/05 03:25:41;;;;;;;9.17;7.23;;;4.30;99.90;;;;;;5022537;28;20597;-68
2023/02/05 03:28:06;;;;;;;13.33;7.87;;;4.90;99.90;;;;;;5017263;28;20470;-68
2023/02/05 03:30:53;;;;;;;12.60;7.73;;;5.10;99.90;;;;;;5019566;28;20184;-67
2023/02/05 03:33:38;;;;;;;8.88;6.97;;;5.00;99.90;;;;;;5016007;28;20230;-68
2023/02/05 03:36:34;;;;;;;11.38;7.82;;;5.00;99.90;;;;;;5002342;28;20205;-67
2023/02/05 03:39:20;;;;;;;11.10;7.60;;;4.90;99.90;;;;;;5017596;28;20548;-68
2023/02/05 03:41:56;;;;;;;9.38;7.22;;;4.80;99.90;;;;;;5018026;28;20198;-68
2023/02/05 03:44:22;;;;;;;9.45;7.25;;;4.90;99.90;;;;;;5020237;28;20683;-68
2023/02/05 03:47:01;;;;;;;10.10;7.50;;;4.20;99.90;;;;;;5000958;28;20289;-68
2023/02/05 03:50:06;;;;;;;10.10;7.68;;;4.90;99.90;;;;;;5019197;28;20215;-67
2023/02/05 03:52:36;;;;;;;11.15;7.85;;;4.70;99.90;;;;;;5017293;28;20191;-68
2023/02/05 03:55:09;;;;;;;10.63;7.20;;;4.50;99.90;;;;;;4998674;28;20417;-68
2023/02/05 03:58:09;;;;;;;12.15;7.20;;;4.70;99.90;;;;;;5000064;28;20212;-68
2023/02/05 04:00:34;;;;;;;10.70;6.85;;;4.50;99.90;;;;;;5014797;28;20248;-68
2023/02/05 04:03:00;;;;;;;9.13;6.47;;;5.10;99.90;;;;;;5017289;28;20181;-67
2023/02/05 04:05:26;;;;;;;10.47;6.30;;;4.60;99.90;;;;;;5023060;28;20665;-68
2023/02/05 04:07:52;;;;;;;10.07;6.30;;;4.70;99.90;;;;;;5018623;28;20227;-67
2023/02/05 04:10:18;;;;;;;11.05;7.88;;;4.60;99.90;;;;;;5005705;28;20316;-67
2023/02/05 04:12:44;;;;;;;11.65;6.50;;;4.70;99.90;;;;;;5016730;28;20684;-68
2023/02/05 04:15:11;;;;;;;9.23;7.03;;;4.10;99.90;;;;;;5017722;28;20192;-68
2023/02/05 04:17:37;;;;;;;8.27;5.82;;;4.40;99.90;;;;;;5016409;28;20971;-68
2023/02/05 04:20:04;;;;;;;7.60;6.70;;;4.60;99.90;;;;;;5022804;28;20560;-68
2023/02/05 04:22:29;;;;;;;8.07;6.15;;;4.40;99.90;;;;;;5016744;28;20196;-68
2023/02/05 04:24:55;;;;;;;10.10;6.40;;;4.50;99.90;;;;;;5017184;28;20267;-68
2023/02/05 04:27:21;;;;;;;13.27;6.37;;;4.50;99.90;;;;;;5012439;28;20441;-68
2023/02/05 04:29:46;;;;;;;8.23;6.10;;;4.00;99.90;;;;;;5021207;28;20263;-68
2023/02/05 04:32:12;;;;;;;8.47;5.60;;;4.20;99.90;;;;;;5013604;28;20193;-68
2023/02/05 04:34:37;;;;;;;10.00;5.97;;;4.40;99.90;;;;;;5016902;28;20207;-68
2023/02/05 04:37:03;;;;;;;7.53;5.30;;;3.70;99.90;;;;;;5018614;28;20213;-67
2023/02/05 04:39:28;;;;;;;12.27;6.03;;;4.20;99.90;;;;;;5002447;28;20194;-68
2023/02/05 04:41:54;;;;;;;7.80;5.43;;;4.20;99.90;;;;;;5016686;28;20274;-68
2023/02/05 04:44:19;;;;;;;7.43;5.80;;;4.50;99.90;;;;;;5001105;28;20556;-68
2023/02/05 04:46:45;;;;;;;14.90;6.43;;;4.20;99.90;;;;;;5011593;28;20872;-67
2023/02/05 04:49:11;;;;;;;9.93;5.83;;;4.10;99.90;;;;;;5018674;28;20408;-67
2023/02/05 04:51:36;;;;;;;7.13;5.37;;;4.30;99.90;;;;;;5016092;28;20191;-67
2023/02/05 04:54:02;;;;;;;7.70;5.90;;;4.50;99.90;;;;;;5015421;28;20258;-67
2023/02/05 04:56:27;;;;;;;8.90;5.80;;;4.10;99.90;;;;;;5017139;28;20700;-67
2023/02/05 04:58:53;;;;;;;9.90;6.00;;;3.60;99.90;;;;;;5013043;28;20191;-67
2023/02/05 05:01:22;;;;;;;8.30;5.87;;;4.40;99.90;;;;;;5013933;28;20649;-67
2023/02/05 05:03:48;;;;;;;10.70;5.25;;;3.70;99.90;;;;;;5013316;28;20270;-67
2023/02/05 05:06:15;;;;;;;7.72;5.45;;;4.00;99.90;;;;;;5019381;28;20216;-67
2023/02/05 05:08:41;;;;;;;11.55;6.85;;;4.60;99.90;;;;;;5015071;28;20262;-67
2023/02/05 05:11:09;;;;;;;10.70;5.20;;;3.40;99.90;;;;;;4996817;28;20187;-68
2023/02/05 05:13:36;;;;;;;9.40;5.95;;;4.00;99.90;;;;;;5019620;28;20184;-67
2023/02/05 05:16:02;;;;;;;7.10;5.20;;;3.80;99.90;;;;;;5015312;28;20208;-67
2023/02/05 05:18:28;;;;;;;7.75;5.20;;;3.80;99.90;;;;;;5018459;28;20564;-67
2023/02/05 05:20:54;;;;;;;7.67;5.27;;;3.90;99.90;;;;;;5018773;28;20197;-67
2023/02/05 05:23:19;;;;;;;6.67;5.07;;;4.30;99.90;;;;;;5016444;28;21243;-67
2023/02/05 05:25:47;;;;;;;7.77;4.63;;;4.00;99.90;;;;;;5015334;28;20211;-67
2023/02/05 05:28:14;;;;;;;9.32;5.38;;;3.60;99.90;;;;;;5018270;28;20216;-67
2023/02/05 05:30:42;;;;;;;7.60;5.82;;;3.40;99.90;;;;;;5020180;28;20217;-67
2023/02/05 05:33:07;;;;;;;11.65;5.38;;;3.90;99.90;;;;;;5002524;28;20184;-67
2023/02/05 05:35:33;;;;;;;8.13;5.63;;;3.80;99.90;;;;;;5018309;28;20710;-67
2023/02/05 05:37:59;;;;;;;9.57;6.90;;;3.90;99.90;;;;;;5020495;28;20191;-67
2023/02/05 05:46:01;;;;;;;9.20;6.22;;;4.00;99.90;;;;;;5012994;28;20723;-67
2023/02/05 05:48:27;;;;;;;13.18;6.88;;;3.30;99.90;;;;;;5015021;28;20221;-67
2023/02/05 05:50:53;;;;;;;8.80;5.70;;;3.90;99.90;;;;;;5016866;28;20190;-67
2023/02/05 05:53:18;;;;;;;7.10;5.70;;;3.20;99.90;;;;;;5018462;28;20655;-67
2023/02/05 05:55:44;;;;;;;9.93;6.53;;;3.40;99.90;;;;;;5018526;28;20696;-67
2023/02/05 05:58:10;;;;;;;8.07;6.07;;;3.90;99.90;;;;;;5003838;28;20558;-67
2023/02/05 06:00:37;;;;;;;9.80;6.10;;;4.40;99.90;;;;;;5014604;28;20715;-67
2023/02/05 06:03:03;;;;;;;15.00;5.93;;;3.80;99.90;;;;;;5014109;28;20688;-67
2023/02/05 06:05:29;;;;;;;10.32;6.70;;;3.90;99.90;;;;;;5016775;28;20199;-67
2023/02/05 06:07:55;;;;;;;7.65;6.05;;;3.90;99.90;;;;;;5017943;28;20709;-67
2023/02/05 06:10:20;;;;;;;9.27;5.83;;;3.90;99.90;;;;;;5024562;28;20195;-67
2023/02/05 06:12:46;;;;;;;7.30;5.10;;;4.60;99.90;;;;;;5029044;28;20190;-67
2023/02/05 06:15:11;;;;;;;8.00;4.90;;;4.30;99.90;;;;;;5015031;28;20203;-67
2023/02/05 06:17:37;;;;;;;6.80;5.13;;;4.30;99.90;;;;;;5020710;28;20248;-67
2023/02/05 06:20:04;;;;;;;9.80;5.80;;;4.30;99.90;;;;;;5027514;28;20207;-67
2023/02/05 06:22:29;;;;;;;10.65;5.93;;;4.20;99.90;;;;;;5003004;28;20340;-65
2023/02/05 06:24:55;;;;;;;7.90;5.00;;;4.10;99.90;;;;;;5022879;28;20696;-66
2023/02/05 06:27:21;;;;;;;6.70;5.93;;;4.50;99.90;;;;;;5014287;28;20722;-66
2023/02/05 06:29:46;;;;;;;8.77;5.60;;;4.10;99.90;;;;;;4998253;28;20308;-65
2023/02/05 06:32:12;;;;;;;9.13;5.43;;;3.90;99.90;;;;;;5024385;28;20188;-65
2023/02/05 06:34:37;;;;;;;7.30;5.23;;;3.90;99.90;;;;;;5019169;28;20283;-64
2023/02/05 06:37:03;;;;;;;7.73;6.17;;;4.20;99.90;;;;;;5020443;28;20231;-66
2023/02/05 06:39:28;;;;;;;8.97;5.70;;;3.80;99.90;;;;;;5018105;28;20196;-67
2023/02/05 06:41:54;;;;;;;9.50;6.23;;;3.40;99.90;;;;;;5011213;28;20183;-66
2023/02/05 06:44:20;;;;;;;9.50;6.13;;;4.30;99.90;;;;;;5018318;28;20253;-66
2023/02/05 06:46:45;;;;;;;8.17;6.40;;;3.70;99.90;;;;;;5017908;28;20211;-69
2023/02/05 06:49:11;;;;;;;10.33;5.93;;;4.30;99.90;;;;;;5022182;28;20211;-68
2023/02/05 06:51:36;;;;;;;12.23;6.00;;;3.90;99.90;;;;;;5017440;28;20314;-68
2023/02/05 06:54:02;;;;;;;9.10;6.27;;;4.80;99.90;;;;;;5021623;28;20175;-65
2023/02/05 06:56:27;;;;;;;7.13;6.43;;;4.60;99.90;;;;;;5025464;28;20212;-65
2023/02/05 06:58:53;;;;;;;9.07;5.90;;;3.70;99.90;;;;;;5020664;28;20557;-67
2023/02/05 07:01:18;;;;;;;9.53;5.70;;;3.90;99.90;;;;;;5024425;28;20598;-67
2023/02/05 07:03:44;;;;;;;9.30;6.83;;;4.60;99.90;;;;;;5021997;28;20724;-70
2023/02/05 07:06:10;;;;;;;10.53;6.67;;;4.40;99.90;;;;;;5023071;28;20750;-68
2023/02/05 07:08:36;;;;;;;9.07;6.63;;;4.40;99.90;;;;;;5020544;28;20212;-68
2023/02/05 07:11:02;;;;;;;8.93;6.03;;;4.10;99.90;;;;;;5018294;28;20687;-67
2023/02/05 07:13:28;;;;;;;9.15;6.38;;;4.40;99.90;;;;;;5022259;28;20436;-67
2023/02/05 07:15:54;;;;;;;7.38;5.28;;;4.60;99.90;;;;;;5019196;28;20207;-68
2023/02/05 07:18:20;;;;;;;8.73;6.90;;;4.00;99.90;;;;;;5020834;28;20683;-68
2023/02/05 07:20:47;;;;;;;7.07;6.38;;;4.50;99.90;;;;;;5025020;28;21305;-68
2023/02/05 07:23:12;;;;;;;9.00;6.05;;;4.70;99.90;;;;;;5005022;28;20184;-67
2023/02/05 07:25:38;;;;;;;9.40;6.43;;;4.90;99.90;;;;;;5020164;28;20207;-68
2023/02/05 07:28:06;;;;;;;10.53;6.70;;;5.00;99.90;;;;;;5016985;28;20471;-66
2023/02/05 07:30:31;;;;;;;9.43;6.40;;;4.10;99.90;;;;;;5018443;28;20188;-66
2023/02/05 07:32:59;;;;;;;11.10;7.30;;;4.90;99.90;;;;;;5026557;28;20181;-65
2023/02/05 07:35:25;;;;;;;8.80;6.00;;;4.80;99.90;;;;;;5015680;28;20220;-66
2023/02/05 07:37:50;;;;;;;13.00;6.77;;;4.80;99.90;;;;;;5020360;28;20357;-65
2023/02/05 07:40:16;;;;;;;12.57;6.80;;;4.90;99.90;;;;;;5018317;28;20197;-65
2023/02/05 07:42:41;;;;;;;10.20;6.07;;;4.60;99.90;;;;;;5019794;28;20208;-65
2023/02/05 07:45:07;;;;;;;8.10;5.80;;;4.30;99.90;;;;;;5021878;28;20184;-66
2023/02/05 07:47:33;;;;;;;7.78;6.60;;;4.90;99.90;;;;;;5025055;28;20236;-65
2023/02/05 07:49:59;;;;;;;6.73;5.60;;;4.80;99.90;;;;;;5019972;28;20318;-66
2023/02/05 07:52:27;;;;;;;9.10;6.30;;;4.40;99.90;;;;;;5017063;28;20192;-66
2023/02/05 07:54:55;;;;;;;8.93;6.07;;;4.90;99.90;;;;;;5025813;28;20179;-65
2023/02/05 07:57:21;;;;;;;7.65;6.45;;;4.80;99.90;;;;;;4998620;28;20214;-66
2023/02/05 07:59:47;;;;;;;7.03;6.00;;;4.90;99.90;;;;;;5018972;28;20230;-67
2023/02/05 08:02:12;;;;;;;9.50;6.73;;;4.80;99.90;;;;;;5018305;28;20280;-66
2023/02/05 08:04:38;;;;;;;7.63;6.37;;;4.90;99.90;;;;;;5015159;28;20184;-66
2023/02/05 08:07:04;;;;;;;8.60;6.30;;;4.90;99.90;;;;;;5018255;28;20217;-66
2023/02/05 08:09:29;;;;;;;13.10;6.20;;;4.90;99.90;;;;;;4997657;28;20219;-66
2023/02/05 08:11:55;;;;;;;8.80;6.53;;;4.90;99.90;;;;;;5018589;28;20234;-66
2023/02/05 08:14:20;;;;;;;11.20;7.10;;;4.50;99.90;;;;;;5018202;28;20211;-66
2023/02/05 08:16:46;;;;;;;7.50;6.30;;;4.80;99.90;;;;;;5001524;28;20214;-66
2023/02/05 08:19:15;;;;;;;13.23;7.20;;;4.90;99.90;;;;;;5019000;28;20196;-66
2023/02/05 08:21:40;;;;;;;10.85;6.55;;;4.90;99.90;;;;;;5016763;28;20551;-66
2023/02/05 08:24:06;;;;;;;11.07;6.90;;;4.50;99.90;;;;;;5017028;28;20189;-66
2023/02/05 08:26:31;;;;;;;8.77;5.77;;;5.30;99.90;;;;;;5019757;28;20289;-66
2023/02/05 08:28:58;;;;;;;9.73;6.50;;;5.30;99.90;;;;;;5017284;28;20246;-66
2023/02/05 08:31:24;;;;;;;11.60;7.93;;;5.10;99.90;;;;;;5016467;28;20271;-66
2023/02/05 08:33:53;;;;;;;9.18;6.70;;;5.00;99.90;;;;;;4995907;28;20689;-66
2023/02/05 08:36:20;;;;;;;11.50;7.05;;;5.30;99.90;;;;;;5018116;28;20200;-66
2023/02/05 08:38:45;;;;;;;11.55;7.35;;;5.10;99.90;;;;;;4997389;28;20189;-66
2023/02/05 08:41:11;;;;;;;7.90;7.00;;;5.10;99.90;;;;;;5010805;28;20194;-66
2023/02/05 08:43:48;;;;;;;11.87;6.60;;;5.60;99.90;;;;;;5014026;28;20454;-67
2023/02/05 08:46:18;;;;;;;8.32;6.70;;;4.80;99.90;;;;;;5019122;28;20467;-67
2023/02/05 08:48:44;;;;;;;10.95;7.00;;;5.30;99.90;;;;;;5016540;28;20214;-67
2023/02/05 08:51:11;;;;;;;10.68;7.43;;;5.50;99.90;;;;;;5022285;28;20252;-67
2023/02/05 08:53:37;;;;;;;11.10;8.20;;;6.00;99.90;;;;;;5018487;28;20199;-67
2023/02/05 08:56:04;;;;;;;15.17;10.00;;;5.90;99.90;;;;;;5016764;28;20208;-67
2023/02/05 08:58:30;;;;;;;8.88;6.70;;;5.10;99.90;;;;;;4999752;28;20473;-67
2023/02/05 09:01:04;;;;;;;10.15;7.15;;;5.20;99.90;;;;;;5015958;28;20666;-67
2023/02/05 09:03:30;;;;;;;9.20;7.47;;;5.20;99.90;;;;;;5018866;28;20654;-67
2023/02/05 09:05:57;;;;;;;10.30;6.97;;;5.20;99.90;;;;;;5014191;28;20273;-66
2023/02/05 09:08:23;;;;;;;9.75;6.65;;;5.50;99.90;;;;;;5015990;28;20336;-66
2023/02/05 09:10:49;;;;;;;9.80;6.40;;;5.30;99.90;;;;;;5004865;28;20566;-66
2023/02/05 09:13:15;;;;;;;16.60;10.87;;;5.40;99.90;;;;;;5017013;28;20182;-67
2023/02/05 09:15:43;;;;;;;10.25;7.85;;;5.50;99.90;;;;;;5017890;28;20455;-67
2023/02/05 09:18:09;;;;;;;13.57;7.80;;;5.60;99.90;;;;;;5020528;28;20182;-67
2023/02/05 09:20:42;;;;;;;9.40;7.60;;;5.60;99.90;;;;;;5016174;28;20228;-67
2023/02/05 09:23:13;;;;;;;10.02;7.85;;;5.90;99.90;;;;;;5013156;28;20612;-67
2023/02/05 09:25:40;;;;;;;9.88;7.32;;;5.70;99.90;;;;;;5016424;28;20205;-67
2023/02/05 09:28:08;;;;;;;8.05;7.22;;;5.70;99.90;;;;;;5015648;28;20227;-67
2023/02/05 09:30:37;;;;;;;12.43;8.90;;;5.60;99.90;;;;;;5015135;28;20525;-67
2023/02/05 09:33:03;;;;;;;13.32;8.05;;;5.80;99.90;;;;;;4999780;28;20191;-67
2023/02/05 09:35:34;;;;;;;8.77;6.93;;;5.80;99.90;;;;;;5017064;28;20213;-67
2023/02/05 09:38:02;;;;;;;10.52;8.55;;;5.80;99.90;;;;;;4994853;28;20189;-67
2023/02/05 09:40:39;;;;;;;11.38;6.82;;;6.00;99.90;;;;;;5016224;28;20190;-67
2023/02/05 09:43:21;;;;;;;7.82;7.07;;;5.90;99.90;;;;;;4995998;28;20291;-67
2023/02/05 09:45:51;;;;;;;8.93;6.38;;;5.90;99.90;;;;;;5018864;28;20223;-66
2023/02/05 09:48:35;;;;;;;8.48;6.00;;;5.80;99.90;;;;;;5016609;28;20248;-66
2023/02/05 09:51:02;;;;;;;9.77;6.43;;;6.20;99.90;;;;;;5014176;28;20292;-67
2023/02/05 09:53:35;;;;;;;7.60;5.10;;;5.90;99.90;;;;;;5001058;28;20288;-66
2023/02/05 09:56:05;;;;;;;11.00;6.40;;;6.20;99.90;;;;;;5022273;28;20206;-67
2023/02/05 09:58:36;;;;;;;9.05;5.80;;;6.00;99.90;;;;;;5022159;28;20194;-67
2023/02/05 10:01:06;;;;;;;5.63;5.03;;;5.50;99.90;;;;;;5018788;28;20197;-67
2023/02/05 10:03:48;;;;;;;6.38;5.75;;;5.90;99.90;;;;;;5021705;28;20221;-66
2023/02/05 10:06:23;;;;;;;8.55;6.03;;;6.10;99.90;;;;;;5000879;28;20331;-66
2023/02/05 10:09:15;;;;;;;9.20;5.75;;;6.10;99.90;;;;;;5020823;28;20206;-66
2023/02/05 10:11:58;;;;;;;9.07;6.35;;;6.50;99.90;;;;;;5016502;28;20189;-68
2023/02/05 10:14:33;;;;;;;10.88;7.40;;;6.10;99.90;;;;;;5015242;28;20181;-68
2023/02/05 10:17:28;;;;;;;10.93;6.93;;;6.00;99.90;;;;;;5009913;28;20295;-67
2023/02/05 10:20:03;;;;;;;15.80;7.35;;;5.60;99.90;;;;;;4939931;28;20196;-66
2023/02/05 10:22:44;;;;;;;15.70;8.10;;;6.40;99.90;;;;;;5000593;28;20243;-65
2023/02/05 10:25:37;;;;;;;12.10;7.05;;;6.10;99.90;;;;;;5028281;28;20178;-67
2023/02/05 10:28:25;;;;;;;9.48;7.40;;;6.20;99.90;;;;;;5023197;28;20210;-68
2023/02/05 10:31:01;;;;;;;7.03;6.35;;;6.30;99.90;;;;;;5015026;28;20367;-68
2023/02/05 10:33:41;;;;;;;9.20;6.10;;;6.50;99.90;;;;;;5018326;28;20198;-66
2023/02/05 10:36:09;;;;;;;11.80;7.15;;;6.40;99.90;;;;;;5013341;28;20214;-68
2023/02/05 10:38:41;;;;;;;9.07;7.32;;;6.60;99.90;;;;;;5021350;28;20190;-68
2023/02/05 10:41:12;;;;;;;8.00;6.60;;;6.50;99.90;;;;;;5017192;28;20641;-66
2023/02/05 10:43:41;;;;;;;12.05;6.50;;;6.00;99.90;;;;;;4995687;28;20243;-69
2023/02/05 10:46:12;;;;;;;9.85;6.72;;;6.40;99.90;;;;;;5004928;28;20261;-69
2023/02/05 10:48:51;;;;;;;8.18;5.95;;;6.70;99.90;;;;;;5016895;28;20238;-68
2023/02/05 10:51:29;;;;;;;9.82;5.65;;;6.40;99.90;;;;;;5023419;28;20248;-66
2023/02/05 10:53:56;;;;;;;8.88;5.93;;;6.20;99.90;;;;;;5016957;28;20642;-66
2023/02/05 10:56:22;;;;;;;7.55;6.30;;;6.50;99.90;;;;;;5019752;28;20895;-67
2023/02/05 10:58:50;;;;;;;7.50;5.70;;;6.80;99.90;;;;;;5020536;28;20194;-67
2023/02/05 11:01:22;;;;;;;7.75;5.93;;;6.60;99.90;;;;;;5017897;28;20191;-69
2023/02/05 11:04:04;;;;;;;9.25;5.80;;;7.00;99.90;;;;;;5015153;28;20238;-67
2023/02/05 11:06:36;;;;;;;9.85;6.28;;;6.30;99.90;;;;;;5018857;28;21727;-67
2023/02/05 11:09:23;;;;;;;8.43;5.90;;;6.80;99.90;;;;;;5021490;28;20230;-67
2023/02/05 11:12:01;;;;;;;8.60;6.53;;;7.00;99.90;;;;;;5017878;28;20941;-67
2023/02/05 11:14:35;;;;;;;12.68;6.45;;;6.70;99.90;;;;;;5020383;28;20196;-67
2023/02/05 11:17:25;;;;;;;9.80;6.72;;;6.80;99.90;;;;;;5019582;28;21038;-67
2023/02/05 11:20:27;;;;;;;9.32;5.35;;;6.90;99.90;;;;;;5018935;28;20586;-67
2023/02/05 11:23:07;;;;;;;10.60;5.88;;;7.00;99.90;;;;;;4975039;28;20205;-67
2023/02/05 11:25:33;;;;;;;9.50;6.35;;;6.70;99.90;;;;;;5000487;28;20247;-67
2023/02/05 11:28:03;;;;;;;11.27;5.87;;;6.80;99.90;;;;;;4995812;28;20277;-67
2023/02/05 11:30:34;;;;;;;10.80;7.20;;;6.80;99.90;;;;;;5024506;28;20814;-67
2023/02/05 11:33:19;;;;;;;13.52;7.68;;;6.70;99.90;;;;;;5001490;28;20209;-67
2023/02/05 11:36:05;;;;;;;8.38;5.90;;;6.60;99.90;;;;;;5018923;28;20591;-67
2023/02/05 11:38:42;;;;;;;10.57;5.40;;;6.70;99.90;;;;;;5002916;28;20282;-67
2023/02/05 11:41:10;;;;;;;10.73;6.35;;;6.80;99.90;;;;;;5012110;28;20179;-67
2023/02/05 11:43:47;;;;;;;9.48;6.15;;;6.70;99.90;;;;;;5019619;28;20273;-67
2023/02/05 11:46:19;;;;;;;7.60;5.88;;;6.80;99.90;;;;;;5011507;28;20253;-68
2023/02/05 11:48:56;;;;;;;9.05;6.53;;;6.90;99.90;;;;;;5016649;28;20933;-68
2023/02/05 11:51:31;;;;;;;6.57;5.85;;;7.40;99.90;;;;;;5013651;28;20654;-68
2023/02/05 11:53:59;;;;;;;9.55;6.97;;;7.10;99.90;;;;;;5014959;28;20694;-68
2023/02/05 11:56:25;;;;;;;10.82;7.07;;;7.10;99.90;;;;;;5018659;28;20210;-68
2023/02/05 11:59:03;;;;;;;8.07;6.03;;;7.10;99.90;;;;;;5011493;28;20190;-68
2023/02/05 12:01:34;;;;;;;8.48;6.00;;;7.20;99.90;;;;;;5019529;28;20253;-67
2023/02/05 12:04:09;;;;;;;8.80;6.63;;;7.80;99.90;;;;;;5016686;28;20210;-68
2023/02/05 12:06:44;;;;;;;8.05;5.60;;;7.60;99.90;;;;;;5012988;28;20213;-67
2023/02/05 12:09:19;;;;;;;10.02;5.50;;;6.90;99.90;;;;;;5016329;28;20214;-67
2023/02/05 12:15:22;;;;;;;15.02;7.03;;;7.20;99.90;;;;;;4997548;28;20202;-67
2023/02/05 12:18:09;;;;;;;8.98;7.25;;;7.30;99.90;;;;;;5017712;28;20278;-67
2023/02/05 12:20:49;;;;;;;8.05;5.97;;;7.20;99.90;;;;;;5016754;28;20175;-67
2023/02/05 12:23:27;;;;;;;9.60;6.80;;;7.80;99.90;;;;;;5016122;28;20313;-68
2023/02/05 12:26:23;;;;;;;13.15;6.38;;;7.50;99.90;;;;;;5015570;28;20213;-68
2023/02/05 12:29:13;;;;;;;10.43;5.85;;;7.80;99.90;;;;;;5013378;28;20222;-68
2023/02/05 12:32:19;;;;;;;8.30;6.18;;;7.50;99.90;;;;;;5022221;28;20189;-67
2023/02/05 12:35:14;;;;;;;12.68;7.30;;;7.40;99.90;;;;;;5012934;28;20191;-68
2023/02/05 12:38:04;;;;;;;10.85;6.40;;;7.50;99.90;;;;;;5015946;28;20644;-67
2023/02/05 12:40:42;;;;;;;12.43;7.30;;;7.40;99.90;;;;;;5018662;28;20195;-68
2023/02/05 12:43:11;;;;;;;12.52;8.02;;;7.60;99.90;;;;;;5019170;28;20194;-68
2023/02/05 12:46:04;;;;;;;12.73;7.43;;;7.60;99.90;;;;;;5015323;28;20241;-68
2023/02/05 12:48:47;;;;;;;11.65;7.75;;;7.50;99.90;;;;;;5015635;28;20218;-67
2023/02/05 12:51:24;;;;;;;6.95;4.25;;;7.10;99.90;;;;;;5013504;28;20274;-67
2023/02/05 12:54:06;;;;;;;4.97;3.83;;;7.00;99.90;;;;;;5019210;28;20174;-67
2023/02/05 12:56:37;;;;;;;3.88;3.22;;;6.90;99.90;;;;;;4998826;28;20195;-68
2023/02/05 12:59:14;;;;;;;3.95;3.40;;;6.80;99.90;;;;;;4995274;28;20247;-67
2023/02/05 13:02:21;;;;;;;7.32;3.90;;;6.50;99.90;;;;;;5016207;28;20189;-68
2023/02/05 13:05:19;;;;;;;10.82;9.73;;;6.90;99.90;;;;;;4984089;28;20294;-68
2023/02/05 13:07:52;;;;;;;7.25;6.55;;;6.80;99.90;;;;;;5013030;28;20574;-68
2023/02/05 13:10:27;;;;;;;13.82;9.15;;;6.50;99.90;;;;;;5014615;28;20194;-68
2023/02/05 13:12:58;;;;;;;11.23;8.63;;;7.00;99.90;;;;;;5012904;28;20193;-68
2023/02/05 13:15:29;;;;;;;9.02;8.13;;;6.50;99.90;;;;;;5017445;28;20539;-68
2023/02/05 13:17:59;;;;;;;12.07;9.23;;;6.80;99.90;;;;;;5016589;28;20263;-68
2023/02/05 13:29:20;;;;;;;9.65;8.63;;;6.60;99.90;;;;;;5013201;28;20205;-68